createdAt,value
2023-03-04T00:06:37.868Z,25.50
2023-03-04T00:17:03.852Z,26.80
2023-03-04T00:27:28.668Z,26.60
2023-03-04T00:37:53.506Z,22.00
2023-03-04T00:48:18.298Z,20.90
2023-03-04T00:58:43.011Z,21.80
2023-03-04T01:09:07.959Z,26.00
2023-03-04T01:19:32.948Z,19.90
2023-03-04T01:29:58.106Z,23.30
2023-03-04T01:40:24.081Z,20.00
2023-03-04T01:50:48.682Z,21.50
2023-03-04T02:01:13.976Z,21.20
2023-03-04T02:11:39.666Z,22.10
2023-03-04T02:22:04.342Z,20.90
2023-03-04T02:32:28.777Z,19.20
2023-03-04T02:42:53.215Z,17.60
2023-03-04T02:53:17.565Z,21.20
2023-03-04T03:03:41.770Z,17.80
2023-03-04T03:14:06.591Z,17.50
2023-03-04T03:24:30.786Z,17.30
2023-03-04T03:34:55.039Z,18.80
2023-03-04T03:45:20.027Z,17.40
2023-03-04T03:55:44.959Z,17.00
2023-03-04T04:06:09.937Z,18.30
2023-03-04T04:16:36.043Z,18.10
2023-03-04T04:27:00.862Z,20.00
2023-03-04T04:37:25.248Z,16.90
2023-03-04T04:47:49.399Z,17.10
2023-03-04T04:58:13.641Z,17.40
2023-03-04T05:08:38.306Z,23.40
2023-03-04T05:19:02.505Z,23.60
2023-03-04T05:29:26.781Z,21.20
2023-03-04T05:39:50.981Z,23.10
2023-03-04T05:50:15.514Z,19.40
2023-03-04T06:00:39.729Z,17.90
2023-03-04T06:11:04.944Z,21.90
2023-03-04T06:21:29.230Z,22.90
2023-03-04T06:31:53.607Z,20.20
2023-03-04T06:42:17.982Z,21.80
2023-03-04T06:52:42.438Z,22.60
2023-03-04T07:03:06.673Z,22.00
2023-03-04T07:13:30.990Z,19.20
2023-03-04T07:23:56.703Z,21.60
2023-03-04T07:34:21.212Z,21.00
2023-03-04T07:44:45.387Z,20.10
2023-03-04T07:55:12.445Z,21.10
2023-03-04T08:05:39.872Z,20.30
2023-03-04T08:16:06.454Z,18.90
2023-03-04T08:26:34.077Z,15.80
2023-03-04T08:36:58.901Z,14.20
2023-03-04T08:47:23.751Z,15.00
2023-03-04T08:57:48.142Z,14.80
2023-03-04T09:08:12.947Z,13.80
2023-03-04T09:18:37.312Z,16.90
2023-03-04T09:29:02.648Z,16.80
2023-03-04T09:39:27.385Z,19.90
2023-03-04T09:49:57.302Z,20.40
2023-03-04T10:00:24.531Z,23.70
2023-03-04T10:10:51.380Z,24.20
2023-03-04T10:21:23.036Z,29.30
2023-03-04T10:31:48.821Z,34.00
2023-03-04T10:42:30.081Z,28.80
2023-03-04T10:52:55.706Z,24.50
2023-03-04T11:03:30.009Z,26.60
2023-03-04T11:13:59.245Z,23.10
2023-03-04T11:24:30.211Z,22.50
2023-03-04T11:35:01.175Z,23.30
2023-03-04T11:45:36.851Z,18.90
2023-03-04T11:56:10.815Z,20.20
2023-03-04T12:06:47.953Z,21.80
2023-03-04T12:17:40.172Z,18.90
2023-03-04T12:28:21.227Z,16.60
2023-03-04T12:39:05.789Z,17.00
2023-03-04T12:49:54.655Z,18.20
2023-03-04T13:00:31.235Z,16.00
2023-03-04T13:11:02.351Z,14.90
2023-03-04T13:21:28.474Z,15.50
2023-03-04T13:32:01.439Z,14.70
2023-03-04T13:42:43.347Z,15.60
2023-03-04T13:53:31.398Z,14.80
2023-03-04T14:03:56.301Z,18.70
2023-03-04T14:14:24.250Z,15.00
2023-03-04T14:25:01.914Z,14.90
2023-03-04T14:35:28.314Z,15.40
2023-03-04T14:45:55.929Z,13.90
2023-03-04T14:56:28.839Z,13.90
2023-03-04T15:06:54.342Z,16.00
2023-03-04T15:17:36.959Z,17.50
2023-03-04T15:28:02.987Z,16.90
2023-03-04T15:38:29.207Z,18.10
2023-03-04T15:48:54.523Z,16.90
2023-03-04T15:59:19.930Z,18.90
2023-03-04T16:09:44.425Z,21.50
2023-03-04T16:20:11.883Z,19.30
2023-03-04T16:30:36.213Z,17.90
2023-03-04T16:41:01.843Z,20.30
2023-03-04T16:51:26.147Z,17.50
2023-03-04T17:01:54.037Z,20.20
2023-03-04T17:12:18.459Z,19.90
2023-03-04T17:22:43.276Z,20.50
2023-03-04T17:33:08.233Z,21.30
2023-03-04T17:43:33.243Z,22.10
2023-03-04T17:53:58.799Z,20.60
2023-03-04T18:04:24.501Z,19.60
2023-03-04T18:14:48.853Z,21.20
2023-03-04T18:25:13.887Z,18.10
2023-03-04T18:35:38.256Z,15.80
2023-03-04T18:46:05.753Z,17.10
2023-03-04T18:56:37.674Z,19.00
2023-03-04T19:07:02.133Z,23.70
2023-03-04T19:17:31.527Z,19.20
2023-03-04T19:27:56.496Z,19.80
2023-03-04T19:38:21.796Z,21.40
2023-03-04T19:48:49.512Z,21.30
2023-03-04T19:59:13.870Z,18.00
2023-03-04T20:09:38.128Z,20.60
2023-03-04T20:20:03.420Z,19.50
2023-03-04T20:30:27.689Z,13.60
2023-03-04T20:40:51.924Z,11.10
2023-03-04T20:51:16.768Z,12.10
2023-03-04T21:01:44.066Z,12.80
2023-03-04T21:12:09.660Z,11.60
2023-03-04T21:22:33.990Z,11.10
2023-03-04T21:32:59.958Z,12.30
2023-03-04T21:43:24.783Z,12.90
2023-03-04T21:53:49.652Z,9.80
2023-03-04T22:04:14.616Z,11.00
2023-03-04T22:14:39.685Z,9.10
2023-03-04T22:25:04.916Z,3.80
2023-03-04T22:35:29.200Z,3.70
2023-03-04T22:45:54.172Z,4.60
2023-03-04T22:56:20.216Z,4.80
2023-03-04T23:06:44.585Z,5.80
2023-03-04T23:17:10.053Z,3.90
2023-03-04T23:27:34.864Z,6.50
2023-03-04T23:37:59.745Z,8.20
2023-03-04T23:48:24.559Z,6.60
2023-03-04T23:58:50.190Z,5.50
